sensor_id;sensor_type;location;lat;lon;timestamp;P1;durP1;ratioP1;P2;durP2;ratioP2
25123;SDS011;13104;51.030;4.686;2024-03-08T00:00:51;9.25;;;4.63;;
25123;SDS011;13104;51.030;4.686;2024-03-08T00:03:17;17.23;;;5.80;;
25123;SDS011;13104;51.030;4.686;2024-03-08T00:05:43;10.35;;;5.70;;
25123;SDS011;13104;51.030;4.686;2024-03-08T00:08:10;7.20;;;3.92;;
25123;SDS011;13104;51.030;4.686;2024-03-08T00:10:36;6.50;;;4.60;;
25123;SDS011;13104;51.030;4.686;2024-03-08T00:13:03;13.55;;;5.60;;
25123;SDS011;13104;51.030;4.686;2024-03-08T00:15:30;6.65;;;3.92;;
25123;SDS011;13104;51.030;4.686;2024-03-08T00:17:57;10.85;;;4.95;;
25123;SDS011;13104;51.030;4.686;2024-03-08T00:20:23;16.38;;;6.05;;
25123;SDS011;13104;51.030;4.686;2024-03-08T00:22:49;18.38;;;5.00;;
25123;SDS011;13104;51.030;4.686;2024-03-08T00:25:16;9.20;;;5.07;;
25123;SDS011;13104;51.030;4.686;2024-03-08T00:27:43;11.10;;;4.15;;
25123;SDS011;13104;51.030;4.686;2024-03-08T00:30:09;14.73;;;5.43;;
25123;SDS011;13104;51.030;4.686;2024-03-08T00:32:38;11.85;;;5.45;;
25123;SDS011;13104;51.030;4.686;2024-03-08T00:35:04;9.30;;;4.88;;
25123;SDS011;13104;51.030;4.686;2024-03-08T00:37:34;12.73;;;4.65;;
25123;SDS011;13104;51.030;4.686;2024-03-08T00:40:00;7.00;;;4.10;;
25123;SDS011;13104;51.030;4.686;2024-03-08T00:42:26;11.82;;;5.47;;
25123;SDS011;13104;51.030;4.686;2024-03-08T00:44:52;12.90;;;5.95;;
25123;SDS011;13104;51.030;4.686;2024-03-08T00:47:18;13.68;;;6.35;;
25123;SDS011;13104;51.030;4.686;2024-03-08T00:49:44;14.82;;;6.80;;
25123;SDS011;13104;51.030;4.686;2024-03-08T00:52:11;8.15;;;5.32;;
25123;SDS011;13104;51.030;4.686;2024-03-08T00:54:37;10.63;;;4.65;;
25123;SDS011;13104;51.030;4.686;2024-03-08T00:57:03;11.25;;;5.75;;
25123;SDS011;13104;51.030;4.686;2024-03-08T00:59:31;24.20;;;5.28;;
25123;SDS011;13104;51.030;4.686;2024-03-08T01:02:01;14.20;;;5.85;;
25123;SDS011;13104;51.030;4.686;2024-03-08T01:04:27;11.40;;;5.65;;
25123;SDS011;13104;51.030;4.686;2024-03-08T01:06:57;10.48;;;6.05;;
25123;SDS011;13104;51.030;4.686;2024-03-08T01:09:24;9.65;;;4.30;;
25123;SDS011;13104;51.030;4.686;2024-03-08T01:11:51;13.85;;;5.30;;
25123;SDS011;13104;51.030;4.686;2024-03-08T01:14:19;11.32;;;4.93;;
25123;SDS011;13104;51.030;4.686;2024-03-08T01:16:47;9.23;;;4.57;;
25123;SDS011;13104;51.030;4.686;2024-03-08T01:19:14;11.07;;;5.57;;
25123;SDS011;13104;51.030;4.686;2024-03-08T01:21:40;10.77;;;5.90;;
25123;SDS011;13104;51.030;4.686;2024-03-08T01:24:07;12.68;;;5.57;;
25123;SDS011;13104;51.030;4.686;2024-03-08T01:26:33;12.10;;;6.40;;
25123;SDS011;13104;51.030;4.686;2024-03-08T01:28:59;10.93;;;4.53;;
25123;SDS011;13104;51.030;4.686;2024-03-08T01:31:28;16.45;;;6.10;;
25123;SDS011;13104;51.030;4.686;2024-03-08T01:33:54;8.13;;;4.82;;
25123;SDS011;13104;51.030;4.686;2024-03-08T01:36:20;15.70;;;5.85;;
25123;SDS011;13104;51.030;4.686;2024-03-08T01:38:46;12.43;;;4.05;;
25123;SDS011;13104;51.030;4.686;2024-03-08T01:41:13;10.27;;;4.53;;
25123;SDS011;13104;51.030;4.686;2024-03-08T01:43:41;13.65;;;5.13;;
25123;SDS011;13104;51.030;4.686;2024-03-08T01:46:07;11.73;;;5.75;;
25123;SDS011;13104;51.030;4.686;2024-03-08T01:48:35;10.15;;;4.55;;
25123;SDS011;13104;51.030;4.686;2024-03-08T01:51:01;13.98;;;6.25;;
25123;SDS011;13104;51.030;4.686;2024-03-08T01:53:27;10.38;;;5.13;;
25123;SDS011;13104;51.030;4.686;2024-03-08T01:55:55;18.52;;;4.72;;
25123;SDS011;13104;51.030;4.686;2024-03-08T01:58:23;12.10;;;5.85;;
25123;SDS011;13104;51.030;4.686;2024-03-08T02:00:49;13.88;;;5.65;;
25123;SDS011;13104;51.030;4.686;2024-03-08T02:03:15;14.15;;;5.07;;
25123;SDS011;13104;51.030;4.686;2024-03-08T02:05:42;10.38;;;6.45;;
25123;SDS011;13104;51.030;4.686;2024-03-08T02:08:11;16.08;;;4.57;;
25123;SDS011;13104;51.030;4.686;2024-03-08T02:10:39;11.73;;;5.65;;
25123;SDS011;13104;51.030;4.686;2024-03-08T02:13:06;9.13;;;4.55;;
25123;SDS011;13104;51.030;4.686;2024-03-08T02:18:18;11.55;;;4.85;;
25123;SDS011;13104;51.030;4.686;2024-03-08T02:20:45;12.82;;;4.10;;
25123;SDS011;13104;51.030;4.686;2024-03-08T02:23:12;8.13;;;5.22;;
25123;SDS011;13104;51.030;4.686;2024-03-08T02:25:39;10.75;;;5.65;;
25123;SDS011;13104;51.030;4.686;2024-03-08T02:28:05;7.55;;;4.68;;
25123;SDS011;13104;51.030;4.686;2024-03-08T02:30:32;13.40;;;4.97;;
25123;SDS011;13104;51.030;4.686;2024-03-08T02:32:59;8.77;;;5.03;;
25123;SDS011;13104;51.030;4.686;2024-03-08T02:35:25;11.95;;;4.97;;
25123;SDS011;13104;51.030;4.686;2024-03-08T02:37:51;14.38;;;5.35;;
25123;SDS011;13104;51.030;4.686;2024-03-08T02:40:17;7.43;;;4.32;;
25123;SDS011;13104;51.030;4.686;2024-03-08T02:42:43;14.25;;;5.63;;
25123;SDS011;13104;51.030;4.686;2024-03-08T02:45:09;6.13;;;4.20;;
25123;SDS011;13104;51.030;4.686;2024-03-08T02:47:35;15.50;;;5.70;;
25123;SDS011;13104;51.030;4.686;2024-03-08T02:50:02;11.15;;;5.20;;
25123;SDS011;13104;51.030;4.686;2024-03-08T02:52:28;8.38;;;4.35;;
25123;SDS011;13104;51.030;4.686;2024-03-08T02:54:56;15.20;;;5.70;;
25123;SDS011;13104;51.030;4.686;2024-03-08T02:57:22;8.82;;;4.45;;
25123;SDS011;13104;51.030;4.686;2024-03-08T02:59:48;4.78;;;4.13;;
25123;SDS011;13104;51.030;4.686;2024-03-08T03:02:14;12.93;;;5.82;;
25123;SDS011;13104;51.030;4.686;2024-03-08T03:04:41;12.77;;;6.25;;
25123;SDS011;13104;51.030;4.686;2024-03-08T03:07:08;20.70;;;4.85;;
25123;SDS011;13104;51.030;4.686;2024-03-08T03:09:34;15.88;;;5.05;;
25123;SDS011;13104;51.030;4.686;2024-03-08T03:12:00;8.98;;;4.90;;
25123;SDS011;13104;51.030;4.686;2024-03-08T03:14:27;10.35;;;4.40;;
25123;SDS011;13104;51.030;4.686;2024-03-08T03:16:53;13.00;;;4.72;;
25123;SDS011;13104;51.030;4.686;2024-03-08T03:19:20;6.03;;;4.40;;
25123;SDS011;13104;51.030;4.686;2024-03-08T03:21:46;9.40;;;4.90;;
25123;SDS011;13104;51.030;4.686;2024-03-08T03:24:12;15.60;;;5.43;;
25123;SDS011;13104;51.030;4.686;2024-03-08T03:26:41;7.20;;;4.70;;
25123;SDS011;13104;51.030;4.686;2024-03-08T03:29:08;8.55;;;5.47;;
25123;SDS011;13104;51.030;4.686;2024-03-08T03:31:36;7.65;;;5.45;;
25123;SDS011;13104;51.030;4.686;2024-03-08T03:34:02;16.45;;;5.90;;
25123;SDS011;13104;51.030;4.686;2024-03-08T03:36:32;10.38;;;6.03;;
25123;SDS011;13104;51.030;4.686;2024-03-08T03:38:59;10.85;;;5.00;;
25123;SDS011;13104;51.030;4.686;2024-03-08T03:41:41;13.60;;;5.95;;
25123;SDS011;13104;51.030;4.686;2024-03-08T03:44:09;23.23;;;5.32;;
25123;SDS011;13104;51.030;4.686;2024-03-08T03:46:35;13.77;;;6.82;;
25123;SDS011;13104;51.030;4.686;2024-03-08T03:49:01;9.85;;;5.07;;
25123;SDS011;13104;51.030;4.686;2024-03-08T03:51:28;7.72;;;5.47;;
25123;SDS011;13104;51.030;4.686;2024-03-08T03:53:55;14.60;;;6.50;;
25123;SDS011;13104;51.030;4.686;2024-03-08T03:56:26;11.38;;;4.93;;
25123;SDS011;13104;51.030;4.686;2024-03-08T03:58:52;12.13;;;5.03;;
25123;SDS011;13104;51.030;4.686;2024-03-08T04:01:18;10.82;;;5.43;;
25123;SDS011;13104;51.030;4.686;2024-03-08T04:03:44;10.77;;;5.13;;
25123;SDS011;13104;51.030;4.686;2024-03-08T04:06:10;7.45;;;5.10;;
25123;SDS011;13104;51.030;4.686;2024-03-08T04:08:36;10.95;;;5.40;;
25123;SDS011;13104;51.030;4.686;2024-03-08T04:11:03;6.50;;;4.40;;
25123;SDS011;13104;51.030;4.686;2024-03-08T04:13:29;8.85;;;5.35;;
25123;SDS011;13104;51.030;4.686;2024-03-08T04:15:55;11.23;;;6.15;;
25123;SDS011;13104;51.030;4.686;2024-03-08T04:18:21;12.18;;;6.35;;
25123;SDS011;13104;51.030;4.686;2024-03-08T04:20:47;13.52;;;5.68;;
25123;SDS011;13104;51.030;4.686;2024-03-08T04:23:13;8.40;;;4.97;;
25123;SDS011;13104;51.030;4.686;2024-03-08T04:25:40;8.55;;;5.03;;
25123;SDS011;13104;51.030;4.686;2024-03-08T04:28:07;8.65;;;4.95;;
25123;SDS011;13104;51.030;4.686;2024-03-08T04:30:37;10.73;;;5.32;;
25123;SDS011;13104;51.030;4.686;2024-03-08T04:33:04;14.50;;;4.75;;
25123;SDS011;13104;51.030;4.686;2024-03-08T04:35:31;5.60;;;4.43;;
25123;SDS011;13104;51.030;4.686;2024-03-08T04:37:57;6.85;;;5.00;;
25123;SDS011;13104;51.030;4.686;2024-03-08T04:40:23;7.65;;;4.50;;
25123;SDS011;13104;51.030;4.686;2024-03-08T04:42:49;13.57;;;4.40;;
25123;SDS011;13104;51.030;4.686;2024-03-08T04:45:16;10.35;;;4.55;;
25123;SDS011;13104;51.030;4.686;2024-03-08T04:47:42;9.65;;;4.63;;
25123;SDS011;13104;51.030;4.686;2024-03-08T04:50:08;12.88;;;5.65;;
25123;SDS011;13104;51.030;4.686;2024-03-08T04:52:35;10.88;;;5.78;;
25123;SDS011;13104;51.030;4.686;2024-03-08T04:55:01;17.67;;;5.53;;
25123;SDS011;13104;51.030;4.686;2024-03-08T04:57:30;11.65;;;5.63;;
25123;SDS011;13104;51.030;4.686;2024-03-08T04:59:57;25.02;;;4.90;;
25123;SDS011;13104;51.030;4.686;2024-03-08T05:02:24;10.80;;;5.47;;
25123;SDS011;13104;51.030;4.686;2024-03-08T05:04:50;12.57;;;6.78;;
25123;SDS011;13104;51.030;4.686;2024-03-08T05:07:17;8.00;;;4.63;;
25123;SDS011;13104;51.030;4.686;2024-03-08T05:09:44;7.47;;;4.47;;
25123;SDS011;13104;51.030;4.686;2024-03-08T05:12:16;12.75;;;5.20;;
25123;SDS011;13104;51.030;4.686;2024-03-08T05:14:42;17.90;;;6.40;;
25123;SDS011;13104;51.030;4.686;2024-03-08T05:17:08;8.50;;;4.63;;
25123;SDS011;13104;51.030;4.686;2024-03-08T05:19:35;15.88;;;6.82;;
25123;SDS011;13104;51.030;4.686;2024-03-08T05:22:02;12.10;;;5.47;;
25123;SDS011;13104;51.030;4.686;2024-03-08T05:24:28;15.07;;;4.50;;
25123;SDS011;13104;51.030;4.686;2024-03-08T05:26:55;7.53;;;4.22;;
25123;SDS011;13104;51.030;4.686;2024-03-08T05:29:21;19.92;;;7.30;;
25123;SDS011;13104;51.030;4.686;2024-03-08T05:31:49;13.07;;;5.20;;
25123;SDS011;13104;51.030;4.686;2024-03-08T05:34:16;7.78;;;4.68;;
25123;SDS011;13104;51.030;4.686;2024-03-08T05:36:42;7.70;;;4.20;;
25123;SDS011;13104;51.030;4.686;2024-03-08T05:39:10;11.70;;;5.15;;
25123;SDS011;13104;51.030;4.686;2024-03-08T05:41:37;11.30;;;5.85;;
25123;SDS011;13104;51.030;4.686;2024-03-08T05:44:03;6.93;;;3.63;;
25123;SDS011;13104;51.030;4.686;2024-03-08T05:46:29;10.60;;;5.18;;
25123;SDS011;13104;51.030;4.686;2024-03-08T05:48:55;15.25;;;5.70;;
25123;SDS011;13104;51.030;4.686;2024-03-08T05:51:23;12.45;;;5.55;;
25123;SDS011;13104;51.030;4.686;2024-03-08T05:53:52;10.93;;;6.10;;
25123;SDS011;13104;51.030;4.686;2024-03-08T05:56:19;9.88;;;4.82;;
25123;SDS011;13104;51.030;4.686;2024-03-08T05:58:45;13.93;;;5.70;;
25123;SDS011;13104;51.030;4.686;2024-03-08T06:01:13;8.85;;;4.47;;
25123;SDS011;13104;51.030;4.686;2024-03-08T06:03:40;9.80;;;5.20;;
25123;SDS011;13104;51.030;4.686;2024-03-08T06:06:13;10.52;;;5.60;;
25123;SDS011;13104;51.030;4.686;2024-03-08T06:08:39;10.52;;;5.60;;
25123;SDS011;13104;51.030;4.686;2024-03-08T06:11:07;15.02;;;6.53;;
25123;SDS011;13104;51.030;4.686;2024-03-08T06:13:34;15.02;;;6.05;;
25123;SDS011;13104;51.030;4.686;2024-03-08T06:16:00;28.45;;;6.57;;
25123;SDS011;13104;51.030;4.686;2024-03-08T06:18:29;8.43;;;4.90;;
25123;SDS011;13104;51.030;4.686;2024-03-08T06:20:55;11.55;;;5.10;;
25123;SDS011;13104;51.030;4.686;2024-03-08T06:23:22;9.52;;;4.45;;
25123;SDS011;13104;51.030;4.686;2024-03-08T06:25:48;9.68;;;4.68;;
25123;SDS011;13104;51.030;4.686;2024-03-08T06:28:14;13.38;;;5.10;;
25123;SDS011;13104;51.030;4.686;2024-03-08T06:30:40;16.27;;;6.18;;
25123;SDS011;13104;51.030;4.686;2024-03-08T06:33:08;10.02;;;5.25;;
25123;SDS011;13104;51.030;4.686;2024-03-08T06:35:35;15.18;;;5.85;;
25123;SDS011;13104;51.030;4.686;2024-03-08T06:38:03;11.43;;;4.95;;
25123;SDS011;13104;51.030;4.686;2024-03-08T06:40:29;9.93;;;5.50;;
25123;SDS011;13104;51.030;4.686;2024-03-08T06:42:55;9.73;;;4.85;;
25123;SDS011;13104;51.030;4.686;2024-03-08T06:45:22;10.90;;;5.55;;
25123;SDS011;13104;51.030;4.686;2024-03-08T06:47:48;7.25;;;4.28;;
25123;SDS011;13104;51.030;4.686;2024-03-08T06:50:15;9.43;;;5.68;;
25123;SDS011;13104;51.030;4.686;2024-03-08T06:52:41;12.23;;;5.43;;
25123;SDS011;13104;51.030;4.686;2024-03-08T06:55:08;17.50;;;6.43;;
25123;SDS011;13104;51.030;4.686;2024-03-08T06:57:40;20.00;;;6.10;;
25123;SDS011;13104;51.030;4.686;2024-03-08T07:00:09;14.02;;;6.18;;
25123;SDS011;13104;51.030;4.686;2024-03-08T07:02:37;13.43;;;5.28;;
25123;SDS011;13104;51.030;4.686;2024-03-08T07:05:04;9.02;;;5.25;;
25123;SDS011;13104;51.030;4.686;2024-03-08T07:07:31;12.60;;;5.13;;
25123;SDS011;13104;51.030;4.686;2024-03-08T07:09:59;10.70;;;4.53;;
25123;SDS011;13104;51.030;4.686;2024-03-08T07:12:25;6.65;;;4.32;;
25123;SDS011;13104;51.030;4.686;2024-03-08T07:14:51;8.02;;;4.53;;
25123;SDS011;13104;51.030;4.686;2024-03-08T07:17:18;18.88;;;6.28;;
25123;SDS011;13104;51.030;4.686;2024-03-08T07:19:44;10.50;;;4.85;;
25123;SDS011;13104;51.030;4.686;2024-03-08T07:22:10;11.00;;;5.70;;
25123;SDS011;13104;51.030;4.686;2024-03-08T07:24:36;9.55;;;5.70;;
25123;SDS011;13104;51.030;4.686;2024-03-08T07:27:15;15.45;;;5.68;;
25123;SDS011;13104;51.030;4.686;2024-03-08T07:29:42;10.60;;;5.05;;
25123;SDS011;13104;51.030;4.686;2024-03-08T07:32:08;10.52;;;5.35;;
25123;SDS011;13104;51.030;4.686;2024-03-08T07:34:46;14.75;;;4.85;;
25123;SDS011;13104;51.030;4.686;2024-03-08T07:37:13;5.85;;;3.88;;
25123;SDS011;13104;51.030;4.686;2024-03-08T07:39:39;10.10;;;5.25;;
25123;SDS011;13104;51.030;4.686;2024-03-08T07:42:06;12.55;;;4.85;;
25123;SDS011;13104;51.030;4.686;2024-03-08T07:44:32;10.77;;;4.75;;
25123;SDS011;13104;51.030;4.686;2024-03-08T07:46:58;6.63;;;4.05;;
25123;SDS011;13104;51.030;4.686;2024-03-08T07:49:24;7.55;;;4.70;;
25123;SDS011;13104;51.030;4.686;2024-03-08T07:51:51;8.52;;;5.38;;
25123;SDS011;13104;51.030;4.686;2024-03-08T07:54:17;9.18;;;5.10;;
25123;SDS011;13104;51.030;4.686;2024-03-08T07:56:43;14.38;;;5.20;;
25123;SDS011;13104;51.030;4.686;2024-03-08T07:59:09;10.27;;;5.88;;
25123;SDS011;13104;51.030;4.686;2024-03-08T08:01:37;10.52;;;4.97;;
25123;SDS011;13104;51.030;4.686;2024-03-08T08:04:03;14.85;;;6.53;;
25123;SDS011;13104;51.030;4.686;2024-03-08T08:06:30;13.30;;;5.68;;
25123;SDS011;13104;51.030;4.686;2024-03-08T08:09:00;7.78;;;3.85;;
25123;SDS011;13104;51.030;4.686;2024-03-08T08:11:29;11.90;;;4.65;;
25123;SDS011;13104;51.030;4.686;2024-03-08T08:13:55;12.18;;;4.82;;
25123;SDS011;13104;51.030;4.686;2024-03-08T08:16:24;11.77;;;4.82;;
25123;SDS011;13104;51.030;4.686;2024-03-08T08:18:51;14.10;;;4.68;;
25123;SDS011;13104;51.030;4.686;2024-03-08T08:21:17;12.40;;;5.40;;
25123;SDS011;13104;51.030;4.686;2024-03-08T08:23:43;9.15;;;5.80;;
25123;SDS011;13104;51.030;4.686;2024-03-08T08:26:10;10.85;;;5.30;;
25123;SDS011;13104;51.030;4.686;2024-03-08T08:28:36;7.22;;;4.28;;
25123;SDS011;13104;51.030;4.686;2024-03-08T08:31:03;6.78;;;4.32;;
25123;SDS011;13104;51.030;4.686;2024-03-08T08:33:29;11.35;;;4.72;;
25123;SDS011;13104;51.030;4.686;2024-03-08T08:35:55;8.52;;;4.57;;
25123;SDS011;13104;51.030;4.686;2024-03-08T08:38:22;8.25;;;5.13;;
25123;SDS011;13104;51.030;4.686;2024-03-08T08:40:49;7.93;;;5.03;;
25123;SDS011;13104;51.030;4.686;2024-03-08T08:43:15;9.55;;;4.95;;
25123;SDS011;13104;51.030;4.686;2024-03-08T08:45:42;9.52;;;5.05;;
25123;SDS011;13104;51.030;4.686;2024-03-08T08:48:09;11.88;;;5.30;;
25123;SDS011;13104;51.030;4.686;2024-03-08T08:50:35;10.40;;;4.40;;
25123;SDS011;13104;51.030;4.686;2024-03-08T08:53:01;8.60;;;4.78;;
25123;SDS011;13104;51.030;4.686;2024-03-08T08:55:28;16.83;;;3.83;;
25123;SDS011;13104;51.030;4.686;2024-03-08T08:57:56;12.15;;;5.43;;
25123;SDS011;13104;51.030;4.686;2024-03-08T09:00:22;5.93;;;3.97;;
25123;SDS011;13104;51.030;4.686;2024-03-08T09:02:52;10.73;;;5.10;;
25123;SDS011;13104;51.030;4.686;2024-03-08T09:05:20;9.90;;;4.35;;
25123;SDS011;13104;51.030;4.686;2024-03-08T09:07:49;8.02;;;4.30;;
25123;SDS011;13104;51.030;4.686;2024-03-08T09:10:15;12.05;;;5.18;;
25123;SDS011;13104;51.030;4.686;2024-03-08T09:12:41;7.00;;;3.53;;
25123;SDS011;13104;51.030;4.686;2024-03-08T09:15:07;10.77;;;5.30;;
25123;SDS011;13104;51.030;4.686;2024-03-08T09:17:35;11.25;;;4.88;;
25123;SDS011;13104;51.030;4.686;2024-03-08T09:20:05;7.68;;;3.10;;
25123;SDS011;13104;51.030;4.686;2024-03-08T09:22:31;13.25;;;3.50;;
25123;SDS011;13104;51.030;4.686;2024-03-08T09:24:57;6.22;;;3.63;;
25123;SDS011;13104;51.030;4.686;2024-03-08T09:27:24;7.40;;;3.65;;
25123;SDS011;13104;51.030;4.686;2024-03-08T09:29:50;7.10;;;3.80;;
25123;SDS011;13104;51.030;4.686;2024-03-08T09:32:16;15.20;;;4.93;;
25123;SDS011;13104;51.030;4.686;2024-03-08T09:34:42;8.30;;;4.03;;
25123;SDS011;13104;51.030;4.686;2024-03-08T09:37:08;12.65;;;4.97;;
25123;SDS011;13104;51.030;4.686;2024-03-08T09:39:34;13.75;;;4.22;;
25123;SDS011;13104;51.030;4.686;2024-03-08T09:42:01;7.05;;;4.25;;
25123;SDS011;13104;51.030;4.686;2024-03-08T09:44:27;10.68;;;4.75;;
25123;SDS011;13104;51.030;4.686;2024-03-08T09:46:56;6.35;;;4.28;;
25123;SDS011;13104;51.030;4.686;2024-03-08T09:49:24;7.28;;;3.58;;
25123;SDS011;13104;51.030;4.686;2024-03-08T09:51:50;10.93;;;4.47;;
25123;SDS011;13104;51.030;4.686;2024-03-08T09:54:16;8.13;;;4.63;;
25123;SDS011;13104;51.030;4.686;2024-03-08T09:56:45;10.65;;;4.50;;
25123;SDS011;13104;51.030;4.686;2024-03-08T09:59:13;8.43;;;4.80;;
25123;SDS011;13104;51.030;4.686;2024-03-08T10:01:48;13.50;;;3.67;;
25123;SDS011;13104;51.030;4.686;2024-03-08T10:04:16;6.05;;;3.83;;
25123;SDS011;13104;51.030;4.686;2024-03-08T10:06:43;6.28;;;3.67;;
25123;SDS011;13104;51.030;4.686;2024-03-08T10:09:09;5.63;;;3.33;;
25123;SDS011;13104;51.030;4.686;2024-03-08T10:11:37;8.65;;;3.83;;
25123;SDS011;13104;51.030;4.686;2024-03-08T10:14:04;6.35;;;3.83;;
25123;SDS011;13104;51.030;4.686;2024-03-08T10:16:31;7.57;;;4.10;;
25123;SDS011;13104;51.030;4.686;2024-03-08T10:18:57;7.28;;;3.53;;
25123;SDS011;13104;51.030;4.686;2024-03-08T10:21:25;6.70;;;3.80;;
25123;SDS011;13104;51.030;4.686;2024-03-08T10:23:52;8.13;;;4.25;;
25123;SDS011;13104;51.030;4.686;2024-03-08T10:26:18;5.38;;;3.92;;
25123;SDS011;13104;51.030;4.686;2024-03-08T10:28:47;10.68;;;4.18;;
25123;SDS011;13104;51.030;4.686;2024-03-08T10:31:14;5.57;;;3.42;;
25123;SDS011;13104;51.030;4.686;2024-03-08T10:33:40;7.03;;;3.72;;
25123;SDS011;13104;51.030;4.686;2024-03-08T10:36:10;8.35;;;3.92;;
25123;SDS011;13104;51.030;4.686;2024-03-08T10:38:37;7.68;;;3.60;;
25123;SDS011;13104;51.030;4.686;2024-03-08T10:41:09;7.25;;;3.28;;
25123;SDS011;13104;51.030;4.686;2024-03-08T10:46:44;9.95;;;3.50;;
25123;SDS011;13104;51.030;4.686;2024-03-08T10:49:18;5.30;;;3.70;;
25123;SDS011;13104;51.030;4.686;2024-03-08T10:51:49;6.95;;;3.60;;
25123;SDS011;13104;51.030;4.686;2024-03-08T10:54:17;8.85;;;3.95;;
25123;SDS011;13104;51.030;4.686;2024-03-08T10:56:44;6.40;;;2.80;;
25123;SDS011;13104;51.030;4.686;2024-03-08T10:59:11;7.80;;;3.95;;
25123;SDS011;13104;51.030;4.686;2024-03-08T11:01:38;11.30;;;3.42;;
25123;SDS011;13104;51.030;4.686;2024-03-08T11:04:05;5.35;;;3.17;;
25123;SDS011;13104;51.030;4.686;2024-03-08T11:11:48;9.68;;;4.28;;
25123;SDS011;13104;51.030;4.686;2024-03-08T11:15:00;6.43;;;3.22;;
25123;SDS011;13104;51.030;4.686;2024-03-08T11:17:03;9.32;;;3.53;;
25123;SDS011;13104;51.030;4.686;2024-03-08T11:19:31;7.97;;;3.85;;
25123;SDS011;13104;51.030;4.686;2024-03-08T11:22:02;7.03;;;3.75;;
25123;SDS011;13104;51.030;4.686;2024-03-08T11:24:38;5.60;;;3.55;;
25123;SDS011;13104;51.030;4.686;2024-03-08T11:27:05;7.03;;;2.80;;
25123;SDS011;13104;51.030;4.686;2024-03-08T11:29:32;6.43;;;3.40;;
25123;SDS011;13104;51.030;4.686;2024-03-08T11:34:32;7.22;;;3.55;;
25123;SDS011;13104;51.030;4.686;2024-03-08T11:36:58;8.35;;;3.35;;
25123;SDS011;13104;51.030;4.686;2024-03-08T11:39:25;14.27;;;3.53;;
25123;SDS011;13104;51.030;4.686;2024-03-08T11:41:53;4.15;;;2.38;;
25123;SDS011;13104;51.030;4.686;2024-03-08T11:44:20;5.25;;;3.22;;
25123;SDS011;13104;51.030;4.686;2024-03-08T11:46:46;5.15;;;2.90;;
25123;SDS011;13104;51.030;4.686;2024-03-08T11:49:13;9.27;;;4.03;;
25123;SDS011;13104;51.030;4.686;2024-03-08T11:51:40;10.07;;;4.10;;
25123;SDS011;13104;51.030;4.686;2024-03-08T11:54:10;6.63;;;3.30;;
25123;SDS011;13104;51.030;4.686;2024-03-08T11:56:37;12.63;;;4.45;;
25123;SDS011;13104;51.030;4.686;2024-03-08T11:59:04;5.57;;;3.17;;
25123;SDS011;13104;51.030;4.686;2024-03-08T12:01:30;12.30;;;4.18;;
25123;SDS011;13104;51.030;4.686;2024-03-08T12:03:56;4.95;;;3.63;;
25123;SDS011;13104;51.030;4.686;2024-03-08T12:06:26;8.77;;;3.95;;
25123;SDS011;13104;51.030;4.686;2024-03-08T12:08:54;5.60;;;3.35;;
25123;SDS011;13104;51.030;4.686;2024-03-08T12:11:20;6.63;;;3.42;;
25123;SDS011;13104;51.030;4.686;2024-03-08T12:13:49;9.00;;;3.53;;
25123;SDS011;13104;51.030;4.686;2024-03-08T12:16:17;10.38;;;4.13;;
25123;SDS011;13104;51.030;4.686;2024-03-08T12:18:43;6.78;;;3.53;;
25123;SDS011;13104;51.030;4.686;2024-03-08T12:21:11;8.68;;;4.30;;
25123;SDS011;13104;51.030;4.686;2024-03-08T12:26:16;5.13;;;3.03;;
25123;SDS011;13104;51.030;4.686;2024-03-08T12:28:43;10.65;;;3.60;;
25123;SDS011;13104;51.030;4.686;2024-03-08T12:31:11;10.10;;;3.65;;
25123;SDS011;13104;51.030;4.686;2024-03-08T12:33:46;8.27;;;3.00;;
25123;SDS011;13104;51.030;4.686;2024-03-08T12:36:14;6.13;;;3.50;;
25123;SDS011;13104;51.030;4.686;2024-03-08T12:38:43;6.38;;;3.17;;
25123;SDS011;13104;51.030;4.686;2024-03-08T12:41:13;11.40;;;4.22;;
25123;SDS011;13104;51.030;4.686;2024-03-08T12:43:39;8.63;;;3.58;;
25123;SDS011;13104;51.030;4.686;2024-03-08T12:46:05;19.38;;;4.50;;
25123;SDS011;13104;51.030;4.686;2024-03-08T12:48:34;7.88;;;3.47;;
25123;SDS011;13104;51.030;4.686;2024-03-08T12:51:00;11.05;;;4.47;;
25123;SDS011;13104;51.030;4.686;2024-03-08T12:53:27;7.25;;;4.00;;
25123;SDS011;13104;51.030;4.686;2024-03-08T12:55:54;8.60;;;4.20;;
25123;SDS011;13104;51.030;4.686;2024-03-08T12:58:21;9.32;;;3.85;;
25123;SDS011;13104;51.030;4.686;2024-03-08T13:00:47;6.93;;;3.55;;
25123;SDS011;13104;51.030;4.686;2024-03-08T13:03:14;10.20;;;4.53;;
25123;SDS011;13104;51.030;4.686;2024-03-08T13:05:40;6.60;;;3.63;;
25123;SDS011;13104;51.030;4.686;2024-03-08T13:08:07;7.13;;;3.40;;
25123;SDS011;13104;51.030;4.686;2024-03-08T13:10:38;6.85;;;3.38;;
25123;SDS011;13104;51.030;4.686;2024-03-08T13:13:04;9.27;;;4.10;;
25123;SDS011;13104;51.030;4.686;2024-03-08T13:15:30;5.53;;;3.50;;
25123;SDS011;13104;51.030;4.686;2024-03-08T13:17:58;5.70;;;3.53;;
25123;SDS011;13104;51.030;4.686;2024-03-08T13:20:25;7.32;;;3.63;;
25123;SDS011;13104;51.030;4.686;2024-03-08T13:22:53;5.30;;;3.65;;
25123;SDS011;13104;51.030;4.686;2024-03-08T13:25:20;5.22;;;3.60;;
25123;SDS011;13104;51.030;4.686;2024-03-08T13:27:46;8.75;;;3.13;;
25123;SDS011;13104;51.030;4.686;2024-03-08T13:30:14;7.57;;;3.80;;
25123;SDS011;13104;51.030;4.686;2024-03-08T13:32:43;5.30;;;3.47;;
25123;SDS011;13104;51.030;4.686;2024-03-08T13:35:12;4.95;;;3.35;;
25123;SDS011;13104;51.030;4.686;2024-03-08T13:37:39;6.05;;;3.47;;
25123;SDS011;13104;51.030;4.686;2024-03-08T13:40:06;7.18;;;3.42;;
25123;SDS011;13104;51.030;4.686;2024-03-08T13:42:36;9.23;;;4.65;;
25123;SDS011;13104;51.030;4.686;2024-03-08T13:45:03;6.38;;;3.53;;
25123;SDS011;13104;51.030;4.686;2024-03-08T13:47:30;8.35;;;3.53;;
25123;SDS011;13104;51.030;4.686;2024-03-08T13:49:57;6.85;;;3.75;;
25123;SDS011;13104;51.030;4.686;2024-03-08T13:52:23;8.70;;;3.03;;
25123;SDS011;13104;51.030;4.686;2024-03-08T13:54:50;4.43;;;3.15;;
25123;SDS011;13104;51.030;4.686;2024-03-08T13:57:16;5.53;;;3.30;;
25123;SDS011;13104;51.030;4.686;2024-03-08T13:59:43;6.00;;;3.35;;
25123;SDS011;13104;51.030;4.686;2024-03-08T14:02:09;7.55;;;3.42;;
25123;SDS011;13104;51.030;4.686;2024-03-08T14:04:38;7.35;;;3.80;;
25123;SDS011;13104;51.030;4.686;2024-03-08T14:07:06;9.40;;;3.28;;
25123;SDS011;13104;51.030;4.686;2024-03-08T14:09:33;9.65;;;3.80;;
25123;SDS011;13104;51.030;4.686;2024-03-08T14:12:03;6.85;;;3.20;;
25123;SDS011;13104;51.030;4.686;2024-03-08T14:14:35;6.93;;;4.10;;
25123;SDS011;13104;51.030;4.686;2024-03-08T14:17:01;14.00;;;4.50;;
25123;SDS011;13104;51.030;4.686;2024-03-08T14:19:29;7.97;;;3.72;;
25123;SDS011;13104;51.030;4.686;2024-03-08T14:22:01;11.07;;;3.45;;
25123;SDS011;13104;51.030;4.686;2024-03-08T14:24:32;12.73;;;3.15;;
25123;SDS011;13104;51.030;4.686;2024-03-08T14:27:00;4.82;;;3.30;;
25123;SDS011;13104;51.030;4.686;2024-03-08T14:29:28;6.70;;;3.85;;
25123;SDS011;13104;51.030;4.686;2024-03-08T14:31:57;5.47;;;3.80;;
25123;SDS011;13104;51.030;4.686;2024-03-08T14:34:27;5.32;;;3.47;;
25123;SDS011;13104;51.030;4.686;2024-03-08T14:36:54;5.53;;;3.17;;
25123;SDS011;13104;51.030;4.686;2024-03-08T14:39:21;5.80;;;3.42;;
25123;SDS011;13104;51.030;4.686;2024-03-08T14:41:51;5.05;;;3.33;;
25123;SDS011;13104;51.030;4.686;2024-03-08T14:44:19;6.88;;;3.55;;
25123;SDS011;13104;51.030;4.686;2024-03-08T14:46:45;5.90;;;3.60;;
25123;SDS011;13104;51.030;4.686;2024-03-08T14:49:12;7.47;;;3.95;;
25123;SDS011;13104;51.030;4.686;2024-03-08T14:51:38;6.28;;;3.60;;
25123;SDS011;13104;51.030;4.686;2024-03-08T14:54:04;6.72;;;3.35;;
25123;SDS011;13104;51.030;4.686;2024-03-08T14:56:35;3.80;;;3.03;;